createdAt,value
2023-03-29T00:01:42.258Z,0.30
2023-03-29T00:04:10.345Z,0.25
2023-03-29T00:06:37.905Z,0.22
2023-03-29T00:09:10.051Z,0.28
2023-03-29T00:11:36.709Z,0.26
2023-03-29T00:14:03.671Z,0.26
2023-03-29T00:16:30.345Z,0.15
2023-03-29T00:18:57.406Z,0.12
2023-03-29T00:21:24.132Z,0.08
2023-03-29T00:23:51.010Z,0.17
2023-03-29T00:26:17.670Z,0.10
2023-03-29T00:28:44.217Z,0.00
2023-03-29T00:31:13.596Z,-0.03
2023-03-29T00:33:41.440Z,-0.06
2023-03-29T00:36:10.509Z,-0.15
2023-03-29T00:38:37.790Z,-0.19
2023-03-29T00:41:06.839Z,-0.28
2023-03-29T00:43:56.320Z,-0.36
2023-03-29T00:46:26.493Z,-0.38
2023-03-29T00:48:57.884Z,-0.35
2023-03-29T00:51:28.066Z,-0.39
2023-03-29T00:53:59.740Z,-0.44
2023-03-29T00:56:37.111Z,-0.53
2023-03-29T00:59:09.534Z,-0.56
2023-03-29T01:01:42.261Z,-0.52
2023-03-29T01:04:18.659Z,-0.60
2023-03-29T01:06:55.454Z,-0.66
2023-03-29T01:09:27.063Z,-0.65
2023-03-29T01:11:57.017Z,-0.65
2023-03-29T01:14:36.368Z,-0.66
2023-03-29T01:17:04.256Z,-0.71
2023-03-29T01:19:38.992Z,-0.83
2023-03-29T01:22:05.352Z,-0.90
2023-03-29T01:24:52.360Z,-1.02
2023-03-29T01:27:53.308Z,-1.11
2023-03-29T01:30:28.956Z,-1.19
2023-03-29T01:32:55.626Z,-1.27
2023-03-29T01:35:35.754Z,-1.26
2023-03-29T01:38:09.864Z,-1.30
2023-03-29T01:40:36.584Z,-1.27
2023-03-29T01:43:09.019Z,-1.22
2023-03-29T01:45:49.351Z,-1.23
2023-03-29T01:48:24.946Z,-1.36
2023-03-29T01:50:55.922Z,-1.38
2023-03-29T01:53:50.259Z,-1.37
2023-03-29T01:56:22.915Z,-1.40
2023-03-29T01:58:55.053Z,-1.41
2023-03-29T02:01:26.162Z,-1.43
2023-03-29T02:03:55.886Z,-1.44
2023-03-29T02:06:27.346Z,-1.46
2023-03-29T02:08:55.784Z,-1.52
2023-03-29T02:11:24.500Z,-1.55
2023-03-29T02:13:51.039Z,-1.60
2023-03-29T02:16:18.132Z,-1.65
2023-03-29T02:18:48.045Z,-1.69
2023-03-29T02:21:44.618Z,-1.70
2023-03-29T02:24:15.410Z,-1.77
2023-03-29T02:26:42.285Z,-1.85
2023-03-29T02:29:09.168Z,-1.94
2023-03-29T02:31:43.065Z,-2.00
2023-03-29T02:34:26.825Z,-2.06
2023-03-29T02:37:06.901Z,-2.12
2023-03-29T02:39:35.843Z,-2.20
2023-03-29T02:42:04.048Z,-2.27
2023-03-29T02:44:33.348Z,-2.32
2023-03-29T02:47:16.080Z,-2.28
2023-03-29T02:49:43.421Z,-2.29
2023-03-29T02:52:14.282Z,-2.39
2023-03-29T02:54:43.363Z,-2.54
2023-03-29T02:57:12.341Z,-2.56
2023-03-29T02:59:40.856Z,-2.60
2023-03-29T03:02:07.466Z,-2.66
2023-03-29T03:04:35.667Z,-2.65
2023-03-29T03:07:05.099Z,-2.64
2023-03-29T03:09:32.043Z,-2.66
2023-03-29T03:11:58.612Z,-2.71
2023-03-29T03:14:25.228Z,-2.63
2023-03-29T03:16:52.875Z,-2.54
2023-03-29T03:19:19.901Z,-2.40
2023-03-29T03:21:47.053Z,-2.44
2023-03-29T03:24:13.981Z,-2.55
2023-03-29T03:26:40.512Z,-2.57
2023-03-29T03:29:07.089Z,-2.59
2023-03-29T03:31:33.754Z,-2.56
2023-03-29T03:34:00.361Z,-2.58
2023-03-29T03:36:29.136Z,-2.63
2023-03-29T03:38:55.758Z,-2.63
2023-03-29T03:41:22.776Z,-2.60
2023-03-29T03:43:49.601Z,-2.61
2023-03-29T03:46:17.227Z,-2.60
2023-03-29T03:48:45.323Z,-2.49
2023-03-29T03:51:12.216Z,-2.39
2023-03-29T03:53:38.923Z,-2.45
2023-03-29T03:56:09.268Z,-2.44
2023-03-29T03:58:37.127Z,-2.37
2023-03-29T04:01:05.448Z,-2.31
2023-03-29T04:03:32.247Z,-2.36
2023-03-29T04:06:03.599Z,-2.35
2023-03-29T04:08:30.345Z,-2.35
2023-03-29T04:10:58.593Z,-2.33
2023-03-29T04:13:27.121Z,-2.29
2023-03-29T04:15:55.756Z,-2.31
2023-03-29T04:18:24.336Z,-2.29
2023-03-29T04:20:51.056Z,-2.28
2023-03-29T04:23:17.739Z,-2.28
2023-03-29T04:25:44.361Z,-2.25
2023-03-29T04:28:12.367Z,-2.19
2023-03-29T04:30:39.343Z,-2.16
2023-03-29T04:33:06.038Z,-2.11
2023-03-29T04:35:33.386Z,-2.13
2023-03-29T04:38:00.119Z,-2.13
2023-03-29T04:40:26.714Z,-2.14
2023-03-29T04:42:54.434Z,-2.10
2023-03-29T04:45:21.378Z,-2.02
2023-03-29T04:47:48.260Z,-1.97
2023-03-29T04:50:15.697Z,-1.95
2023-03-29T04:52:42.398Z,-1.90
2023-03-29T04:55:09.365Z,-1.80
2023-03-29T04:57:36.052Z,-1.72
2023-03-29T05:00:13.725Z,-1.64
2023-03-29T05:02:40.544Z,-1.61
2023-03-29T05:05:07.348Z,-1.51
2023-03-29T05:07:33.921Z,-1.44
2023-03-29T05:10:00.765Z,-1.43
2023-03-29T05:12:27.316Z,-1.37
2023-03-29T05:14:54.123Z,-1.23
2023-03-29T05:17:21.825Z,-1.17
2023-03-29T05:19:48.460Z,-1.16
2023-03-29T05:22:15.294Z,-1.12
2023-03-29T05:24:42.138Z,-1.06
2023-03-29T05:27:08.791Z,-0.96
2023-03-29T05:29:35.453Z,-0.87
2023-03-29T05:32:02.255Z,-0.71
2023-03-29T05:34:29.694Z,-0.69
2023-03-29T05:36:56.973Z,-0.69
2023-03-29T05:39:23.597Z,-0.58
2023-03-29T05:41:50.199Z,-0.53
2023-03-29T05:44:17.117Z,-0.48
2023-03-29T05:46:43.765Z,-0.45
2023-03-29T05:49:10.414Z,-0.44
2023-03-29T05:51:37.098Z,-0.39
2023-03-29T05:54:03.897Z,-0.33
2023-03-29T05:56:30.568Z,-0.22
2023-03-29T05:58:57.148Z,0.02
2023-03-29T06:01:24.600Z,0.15
2023-03-29T06:03:52.154Z,0.24
2023-03-29T06:06:19.269Z,0.28
2023-03-29T06:08:46.384Z,0.26
2023-03-29T06:11:13.524Z,0.23
2023-03-29T06:13:42.184Z,0.24
2023-03-29T06:16:10.482Z,0.24
2023-03-29T06:18:40.168Z,0.28
2023-03-29T06:21:09.280Z,0.31
2023-03-29T06:23:36.497Z,0.39
2023-03-29T06:26:04.200Z,0.48
2023-03-29T06:28:30.781Z,0.56
2023-03-29T06:31:02.928Z,0.63
2023-03-29T06:33:32.314Z,0.73
2023-03-29T06:35:59.124Z,0.82
2023-03-29T06:38:29.273Z,0.90
2023-03-29T06:41:04.578Z,1.02
2023-03-29T06:43:33.384Z,1.12
2023-03-29T06:46:01.062Z,1.22
2023-03-29T06:48:27.711Z,1.31
2023-03-29T06:50:54.623Z,1.40
2023-03-29T06:53:22.066Z,1.51
2023-03-29T06:55:50.762Z,1.60
2023-03-29T06:58:17.660Z,1.68
2023-03-29T07:00:44.423Z,1.80
2023-03-29T07:03:14.848Z,1.90
2023-03-29T07:05:41.712Z,1.97
2023-03-29T07:08:08.579Z,2.04
2023-03-29T07:10:41.265Z,2.09
2023-03-29T07:13:13.358Z,2.14
2023-03-29T07:15:41.498Z,2.19
2023-03-29T07:18:09.484Z,2.25
2023-03-29T07:20:38.351Z,2.33
2023-03-29T07:23:06.245Z,2.38
2023-03-29T07:25:34.056Z,2.44
2023-03-29T07:28:00.900Z,2.51
2023-03-29T07:30:31.674Z,2.60
2023-03-29T07:32:59.705Z,2.74
2023-03-29T07:35:27.115Z,2.87
2023-03-29T07:37:55.569Z,2.99
2023-03-29T07:40:26.423Z,3.06
2023-03-29T07:42:56.558Z,3.16
2023-03-29T07:45:26.249Z,3.27
2023-03-29T07:47:58.682Z,3.40
2023-03-29T07:50:26.201Z,3.51
2023-03-29T07:52:53.252Z,3.65
2023-03-29T07:55:20.580Z,3.73
2023-03-29T07:57:49.229Z,3.79
2023-03-29T08:00:16.873Z,3.82
2023-03-29T08:02:49.939Z,3.84
2023-03-29T08:05:26.018Z,3.89
2023-03-29T08:07:56.366Z,3.89
2023-03-29T08:10:23.453Z,3.96
2023-03-29T08:12:50.798Z,4.03
2023-03-29T08:15:17.978Z,4.04
2023-03-29T08:17:44.736Z,4.11
2023-03-29T08:20:15.049Z,4.25
2023-03-29T08:22:42.025Z,4.36
2023-03-29T08:25:09.636Z,4.41
2023-03-29T08:27:37.542Z,4.52
2023-03-29T08:30:09.554Z,4.63
2023-03-29T08:32:37.428Z,4.70
2023-03-29T08:35:06.617Z,4.80
2023-03-29T08:37:33.322Z,4.89
2023-03-29T08:40:00.929Z,5.05
2023-03-29T08:42:49.293Z,5.18
2023-03-29T08:45:43.004Z,5.31
2023-03-29T08:48:21.579Z,5.34
2023-03-29T08:50:54.915Z,5.49
2023-03-29T08:53:31.856Z,5.54
2023-03-29T08:56:02.452Z,5.59
2023-03-29T08:58:32.766Z,5.76
2023-03-29T09:01:08.560Z,5.79
2023-03-29T09:03:41.883Z,5.95
2023-03-29T09:06:11.268Z,6.04
2023-03-29T09:08:41.488Z,6.16
2023-03-29T09:11:23.353Z,6.21
2023-03-29T09:14:05.692Z,6.29
2023-03-29T09:16:40.773Z,6.49
2023-03-29T09:19:44.912Z,6.71
2023-03-29T09:22:36.698Z,6.97
2023-03-29T09:25:23.305Z,7.31
2023-03-29T09:28:09.328Z,7.49
2023-03-29T09:30:47.011Z,7.79
2023-03-29T09:33:27.554Z,8.19
2023-03-29T09:36:01.844Z,8.27
2023-03-29T09:38:31.249Z,8.29
2023-03-29T09:41:14.473Z,8.29
2023-03-29T09:43:42.961Z,8.23
2023-03-29T09:46:19.436Z,8.29
2023-03-29T09:48:48.083Z,8.25
2023-03-29T09:51:16.498Z,8.24
2023-03-29T09:53:43.079Z,8.38
2023-03-29T09:56:10.722Z,8.45
2023-03-29T09:58:37.464Z,8.58
2023-03-29T10:01:10.440Z,8.63
2023-03-29T10:03:37.378Z,8.80
2023-03-29T10:06:07.407Z,8.87
2023-03-29T10:08:42.248Z,8.85
2023-03-29T10:11:29.093Z,8.86
2023-03-29T10:14:00.466Z,8.90
2023-03-29T10:16:36.181Z,8.81
2023-03-29T10:19:22.537Z,8.95
2023-03-29T10:21:53.104Z,9.07
2023-03-29T10:24:25.281Z,9.17
2023-03-29T10:26:57.006Z,9.22
2023-03-29T10:29:25.475Z,9.34
2023-03-29T10:31:52.932Z,9.56
2023-03-29T10:34:25.269Z,9.69
2023-03-29T10:37:02.094Z,9.83
2023-03-29T10:39:33.737Z,10.00
2023-03-29T10:42:03.317Z,10.12
2023-03-29T10:44:36.717Z,10.11
2023-03-29T10:47:13.544Z,10.19
2023-03-29T10:49:42.970Z,10.37
2023-03-29T10:52:09.651Z,10.47
2023-03-29T10:54:36.750Z,10.38
2023-03-29T10:57:11.174Z,10.24
2023-03-29T10:59:53.616Z,10.39
2023-03-29T11:02:52.431Z,10.78
2023-03-29T11:05:29.404Z,11.15
2023-03-29T11:08:05.102Z,11.42
2023-03-29T11:10:31.672Z,11.51
2023-03-29T11:13:21.238Z,11.47
2023-03-29T11:15:59.924Z,11.29
2023-03-29T11:18:52.750Z,11.06
2023-03-29T11:21:34.139Z,10.91
2023-03-29T11:24:35.602Z,11.03
2023-03-29T11:27:20.482Z,11.18
2023-03-29T11:29:49.919Z,11.29
2023-03-29T11:32:38.170Z,11.44
2023-03-29T11:35:27.363Z,11.80
2023-03-29T11:38:32.327Z,12.03
2023-03-29T11:41:08.296Z,12.43
2023-03-29T11:43:59.469Z,12.71
2023-03-29T11:46:52.240Z,13.02
2023-03-29T11:49:38.441Z,13.28
2023-03-29T11:52:14.940Z,13.61
2023-03-29T11:54:46.727Z,14.10
2023-03-29T11:57:35.208Z,14.67
2023-03-29T12:00:05.408Z,15.14
2023-03-29T12:02:40.147Z,15.68
2023-03-29T12:05:22.270Z,15.92
2023-03-29T12:07:54.548Z,16.19
2023-03-29T12:10:23.998Z,16.12
2023-03-29T12:13:29.122Z,16.05
2023-03-29T12:16:05.125Z,16.19
2023-03-29T12:18:55.172Z,16.47
2023-03-29T12:21:24.171Z,16.74
2023-03-29T12:23:51.963Z,15.94
2023-03-29T12:26:38.004Z,15.38
2023-03-29T12:29:08.363Z,15.29
2023-03-29T12:32:05.959Z,15.47
2023-03-29T12:34:47.865Z,15.76
2023-03-29T12:37:36.202Z,16.00
2023-03-29T12:40:25.203Z,15.69
2023-03-29T12:43:02.380Z,15.40
2023-03-29T12:45:42.899Z,15.23
2023-03-29T12:48:17.405Z,15.14
2023-03-29T12:50:43.903Z,15.56
2023-03-29T12:53:39.728Z,16.17
2023-03-29T12:56:08.520Z,16.44
2023-03-29T12:58:59.447Z,16.46
2023-03-29T13:01:32.183Z,16.23
2023-03-29T13:04:01.608Z,16.21
2023-03-29T13:06:56.390Z,16.40
2023-03-29T13:09:29.629Z,16.22
2023-03-29T13:12:22.928Z,16.35
2023-03-29T13:14:53.078Z,16.92
2023-03-29T13:17:28.031Z,17.16
2023-03-29T13:20:12.517Z,17.45
2023-03-29T13:22:58.512Z,17.52
2023-03-29T13:25:38.447Z,17.56
2023-03-29T13:28:37.057Z,17.31
2023-03-29T13:31:21.693Z,16.74
2023-03-29T13:33:48.200Z,16.00
2023-03-29T13:36:15.582Z,15.66
2023-03-29T13:38:52.413Z,15.28
2023-03-29T13:41:40.825Z,15.23
2023-03-29T13:44:22.696Z,15.24
2023-03-29T13:47:14.406Z,15.41
2023-03-29T13:49:43.978Z,15.71
2023-03-29T13:52:26.008Z,15.85
2023-03-29T13:55:00.676Z,15.73
2023-03-29T13:57:57.672Z,15.68
2023-03-29T14:00:54.127Z,15.41
2023-03-29T14:03:29.931Z,15.46
2023-03-29T14:06:02.461Z,15.52
2023-03-29T14:08:33.345Z,15.27
2023-03-29T14:11:03.540Z,15.17
2023-03-29T14:13:30.679Z,15.03
2023-03-29T14:16:04.644Z,14.77
2023-03-29T14:18:37.967Z,14.36
2023-03-29T14:21:05.215Z,14.07
2023-03-29T14:23:35.154Z,13.86
2023-03-29T14:26:15.296Z,13.71
2023-03-29T14:28:51.443Z,13.60
2023-03-29T14:31:26.351Z,13.35
2023-03-29T14:33:54.480Z,13.14
2023-03-29T14:36:22.609Z,12.91
2023-03-29T14:38:55.941Z,12.77
2023-03-29T14:41:24.369Z,12.71
2023-03-29T14:43:51.605Z,12.34
2023-03-29T14:46:21.280Z,12.14
2023-03-29T14:48:48.299Z,11.93
2023-03-29T14:51:15.125Z,11.73
2023-03-29T14:53:42.550Z,11.72
2023-03-29T14:56:13.437Z,11.76
2023-03-29T14:58:46.596Z,11.72
2023-03-29T15:01:18.912Z,11.75
2023-03-29T15:03:56.492Z,11.73
2023-03-29T15:06:28.220Z,11.61
2023-03-29T15:09:05.025Z,11.49
2023-03-29T15:11:34.214Z,11.42
2023-03-29T15:14:08.627Z,11.40
2023-03-29T15:16:40.562Z,11.48
2023-03-29T15:19:10.459Z,11.43
2023-03-29T15:21:38.705Z,11.48
2023-03-29T15:24:05.726Z,11.46
2023-03-29T15:26:36.718Z,11.44
2023-03-29T15:29:12.626Z,11.43
2023-03-29T15:31:41.915Z,11.37
2023-03-29T15:34:14.505Z,11.37
2023-03-29T15:36:45.178Z,11.33
2023-03-29T15:39:17.150Z,11.26
2023-03-29T15:41:46.341Z,11.14
2023-03-29T15:44:17.566Z,11.09
2023-03-29T15:46:44.523Z,11.10
2023-03-29T15:49:12.031Z,11.08
2023-03-29T15:51:39.586Z,10.96
2023-03-29T15:54:07.894Z,10.79
2023-03-29T15:56:41.959Z,10.60
2023-03-29T15:59:12.277Z,10.51
2023-03-29T16:01:39.452Z,10.51
2023-03-29T16:04:14.441Z,10.40
2023-03-29T16:06:43.836Z,10.38
2023-03-29T16:09:12.031Z,10.39
2023-03-29T16:11:40.812Z,10.31
2023-03-29T16:14:28.344Z,10.23
2023-03-29T16:17:01.141Z,10.16
2023-03-29T16:19:29.190Z,10.11
2023-03-29T16:21:57.014Z,10.12
2023-03-29T16:24:29.003Z,10.10
2023-03-29T16:26:56.776Z,10.03
2023-03-29T16:29:24.618Z,10.00
2023-03-29T16:31:52.786Z,9.99
2023-03-29T16:34:21.139Z,9.90
2023-03-29T16:36:47.918Z,9.83
2023-03-29T16:39:15.968Z,9.75
2023-03-29T16:41:43.257Z,9.69
2023-03-29T16:44:16.163Z,9.60
2023-03-29T16:46:43.039Z,9.50
2023-03-29T16:49:14.008Z,9.43
2023-03-29T16:51:40.688Z,9.36
2023-03-29T16:54:07.379Z,9.33
2023-03-29T16:56:36.464Z,9.33
2023-03-29T16:59:03.731Z,9.27
2023-03-29T17:01:30.350Z,9.23
2023-03-29T17:03:57.296Z,9.15
2023-03-29T17:06:23.949Z,9.12
2023-03-29T17:08:50.556Z,9.06
2023-03-29T17:11:17.518Z,9.02
2023-03-29T17:13:44.542Z,8.91
2023-03-29T17:16:11.171Z,8.87
2023-03-29T17:18:37.915Z,8.85
2023-03-29T17:21:04.895Z,8.84
2023-03-29T17:23:31.722Z,8.81
2023-03-29T17:25:58.303Z,8.75
2023-03-29T17:28:24.951Z,8.72
2023-03-29T17:30:52.013Z,8.69
2023-03-29T17:33:22.502Z,8.68
2023-03-29T17:35:49.446Z,8.64
2023-03-29T17:38:16.049Z,8.58
2023-03-29T17:40:43.028Z,8.57
2023-03-29T17:43:09.610Z,8.55
2023-03-29T17:45:36.598Z,8.52
2023-03-29T17:48:06.058Z,8.57
2023-03-29T17:50:33.226Z,8.56
2023-03-29T17:52:59.865Z,8.57
2023-03-29T17:55:27.453Z,8.58
2023-03-29T17:57:54.029Z,8.57
2023-03-29T18:00:20.975Z,8.55
2023-03-29T18:02:47.653Z,8.55
2023-03-29T18:05:14.326Z,8.53
2023-03-29T18:07:41.024Z,8.47
2023-03-29T18:10:08.249Z,8.45
2023-03-29T18:12:35.073Z,8.44
2023-03-29T18:15:01.801Z,8.36
2023-03-29T18:17:28.621Z,8.33
2023-03-29T18:19:55.272Z,8.30
2023-03-29T18:22:23.984Z,8.37
2023-03-29T18:24:50.997Z,8.31
2023-03-29T18:27:17.950Z,8.24
2023-03-29T18:29:44.838Z,8.21
2023-03-29T18:32:12.346Z,8.20
2023-03-29T18:34:39.405Z,8.17
2023-03-29T18:37:06.353Z,8.16
2023-03-29T18:39:35.814Z,8.13
2023-03-29T18:42:02.412Z,8.12
2023-03-29T18:44:29.362Z,8.10
2023-03-29T18:46:56.316Z,8.07
2023-03-29T18:49:23.098Z,8.01
2023-03-29T18:51:50.016Z,7.99
2023-03-29T18:54:17.264Z,7.90
2023-03-29T18:56:44.114Z,7.89
2023-03-29T18:59:10.772Z,7.85
2023-03-29T19:01:37.401Z,7.79
2023-03-29T19:04:04.376Z,7.79
2023-03-29T19:06:33.755Z,7.76
2023-03-29T19:09:02.273Z,7.75
2023-03-29T19:11:31.664Z,7.77
2023-03-29T19:13:58.206Z,7.75
2023-03-29T19:16:28.199Z,7.74
2023-03-29T19:18:55.041Z,7.75
2023-03-29T19:21:21.613Z,7.71
2023-03-29T19:23:52.968Z,7.67
2023-03-29T19:26:19.531Z,7.63
2023-03-29T19:28:46.093Z,7.58
2023-03-29T19:31:12.815Z,7.50
2023-03-29T19:33:40.850Z,7.49
2023-03-29T19:36:07.923Z,7.53
2023-03-29T19:38:34.694Z,7.49
2023-03-29T19:41:01.264Z,7.45
2023-03-29T19:43:27.892Z,7.43
2023-03-29T19:45:54.561Z,7.39
2023-03-29T19:48:23.918Z,7.41
2023-03-29T19:50:51.484Z,7.39
2023-03-29T19:53:18.115Z,7.37
2023-03-29T19:55:45.511Z,7.35
2023-03-29T19:58:12.911Z,7.31
2023-03-29T20:00:39.900Z,7.27
2023-03-29T20:03:10.682Z,7.27
2023-03-29T20:05:38.824Z,7.24
2023-03-29T20:08:05.976Z,7.23
2023-03-29T20:10:33.556Z,7.22
2023-03-29T20:13:00.281Z,7.24
2023-03-29T20:15:26.948Z,7.27
2023-03-29T20:17:57.027Z,7.25
2023-03-29T20:20:25.420Z,7.23
2023-03-29T20:22:58.089Z,7.22
2023-03-29T20:25:25.094Z,7.24
2023-03-29T20:27:53.169Z,7.24
2023-03-29T20:30:20.128Z,7.25
2023-03-29T20:32:46.973Z,7.23
2023-03-29T20:35:13.798Z,7.22
2023-03-29T20:37:40.365Z,7.22
2023-03-29T20:40:08.290Z,7.19
2023-03-29T20:42:36.688Z,7.15
2023-03-29T20:45:04.561Z,7.09
2023-03-29T20:47:31.342Z,7.05
2023-03-29T20:49:58.012Z,7.03
2023-03-29T20:52:27.154Z,6.99
2023-03-29T20:54:55.007Z,6.97
2023-03-29T20:57:21.691Z,6.98
2023-03-29T20:59:49.349Z,7.00
2023-03-29T21:02:21.680Z,7.01
2023-03-29T21:04:52.412Z,7.01
2023-03-29T21:07:20.316Z,7.03
2023-03-29T21:09:50.443Z,7.02
2023-03-29T21:12:17.445Z,7.02
2023-03-29T21:14:44.661Z,6.99
2023-03-29T21:17:11.458Z,6.96
2023-03-29T21:19:39.345Z,6.97
2023-03-29T21:22:07.337Z,6.93
2023-03-29T21:24:36.384Z,6.92
2023-03-29T21:27:03.014Z,6.89
2023-03-29T21:29:29.528Z,6.87
2023-03-29T21:31:56.191Z,6.84
2023-03-29T21:34:22.932Z,6.82
2023-03-29T21:36:49.778Z,6.74
2023-03-29T21:39:16.658Z,6.67
2023-03-29T21:41:43.472Z,6.64
2023-03-29T21:44:10.080Z,6.56
2023-03-29T21:46:36.702Z,6.53
2023-03-29T21:49:03.404Z,6.49
2023-03-29T21:51:29.964Z,6.47
2023-03-29T21:53:56.656Z,6.47
2023-03-29T21:56:23.231Z,6.39
2023-03-29T21:58:49.795Z,6.36
2023-03-29T22:01:16.726Z,6.27
2023-03-29T22:03:43.356Z,6.26
2023-03-29T22:06:13.552Z,6.22
2023-03-29T22:08:40.691Z,6.17
2023-03-29T22:11:14.353Z,6.03
2023-03-29T22:13:42.893Z,5.94
2023-03-29T22:16:14.010Z,5.83
2023-03-29T22:18:44.166Z,5.76
2023-03-29T22:21:17.598Z,5.72
2023-03-29T22:23:47.484Z,5.69
2023-03-29T22:26:16.240Z,5.60
2023-03-29T22:28:43.269Z,5.61
2023-03-29T22:31:12.437Z,5.57
2023-03-29T22:33:40.577Z,5.53
2023-03-29T22:36:15.964Z,5.45
2023-03-29T22:38:43.142Z,5.41
2023-03-29T22:41:10.214Z,5.36
2023-03-29T22:43:37.135Z,5.31
2023-03-29T22:46:06.004Z,5.27
2023-03-29T22:48:33.091Z,5.10
2023-03-29T22:51:00.695Z,5.09
2023-03-29T22:53:27.699Z,5.09
2023-03-29T22:55:55.113Z,5.06
2023-03-29T22:58:21.785Z,5.04
2023-03-29T23:00:48.772Z,5.03
2023-03-29T23:03:15.970Z,4.95
2023-03-29T23:05:42.669Z,4.92
2023-03-29T23:08:09.291Z,4.92
2023-03-29T23:10:35.978Z,4.87
2023-03-29T23:13:08.850Z,4.79
2023-03-29T23:15:37.977Z,4.69
2023-03-29T23:18:05.708Z,4.61
2023-03-29T23:20:32.728Z,4.45
2023-03-29T23:22:59.980Z,4.32
2023-03-29T23:25:27.537Z,4.29
2023-03-29T23:27:54.579Z,4.22
2023-03-29T23:30:21.689Z,4.19
2023-03-29T23:32:49.340Z,4.28
2023-03-29T23:35:16.254Z,4.37
2023-03-29T23:37:43.302Z,4.41
2023-03-29T23:40:15.505Z,4.48
2023-03-29T23:42:44.326Z,4.48
2023-03-29T23:45:13.440Z,4.50
2023-03-29T23:47:42.432Z,4.52
2023-03-29T23:50:11.984Z,4.56
2023-03-29T23:52:40.574Z,4.56
2023-03-29T23:55:10.041Z,4.59
2023-03-29T23:57:37.157Z,4.62
